Time;durP1;ratioP1;P1;durP2;ratioP2;P2;SDS_P1;SDS_P2;PMS_P1;PMS_P2;Temp;Humidity;BMP_temperature;BMP_pressure;BME280_temperature;BME280_humidity;BME280_pressure;Samples;Min_cycle;Max_cycle;Signal;HPM_P1;HPM_P2
2022/04/15 00:01:32;;;;;;;;;;;;;;;21.63;43.70;102333.78;4979730;28;20259;-83
2022/04/15 00:03:57;;;;;;;;;;;;;;;21.63;43.95;102333.78;4963531;28;19922;-82
2022/04/15 00:06:24;;;;;;;;;;;;;;;21.62;43.69;102332.97;4982513;28;19921;-81
2022/04/15 00:08:50;;;;;;;;;;;;;;;21.61;44.04;102332.09;4979151;28;19927;-86
2022/04/15 00:11:15;;;;;;;;;;;;;;;21.61;43.84;102326.63;4975146;28;19932;-87
2022/04/15 00:13:41;;;;;;;;;;;;;;;21.62;43.72;102330.22;4975334;28;20037;-87
2022/04/15 00:16:07;;;;;;;;;;;;;;;21.62;43.79;102330.22;4972849;28;19923;-83
2022/04/15 00:18:33;;;;;;;;;;;;;;;21.60;43.88;102330.47;4971643;28;19926;-88
2022/04/15 00:20:59;;;;;;;;;;;;;;;21.59;43.70;102326.06;4967756;28;19973;-83
2022/04/15 00:23:24;;;;;;;;;;;;;;;21.60;43.99;102332.41;4987659;28;19918;-84
2022/04/15 00:25:50;;;;;;;;;;;;;;;21.58;44.24;102331.84;4961607;28;19922;-83
2022/04/15 00:28:16;;;;;;;;;;;;;;;21.57;44.00;102332.94;4974281;28;19934;-83
2022/04/15 00:30:41;;;;;;;;;;;;;;;21.56;43.93;102329.38;4967970;28;19973;-88
2022/04/15 00:33:06;;;;;;;;;;;;;;;21.55;43.75;102336.00;4976716;28;19928;-82
2022/04/15 00:35:32;;;;;;;;;;;;;;;21.55;43.82;102335.16;4962392;28;19926;-83
2022/04/15 00:37:57;;;;;;;;;;;;;;;21.53;43.83;102335.44;4975233;28;19926;-83
2022/04/15 00:40:22;;;;;;;;;;;;;;;21.52;43.68;102331.06;4980662;28;19933;-82
2022/04/15 00:42:48;;;;;;;;;;;;;;;21.52;44.06;102342.06;4972432;28;20363;-82
2022/04/15 00:45:13;;;;;;;;;;;;;;;21.51;43.72;102342.31;4969058;28;19999;-82
2022/04/15 00:47:41;;;;;;;;;;;;;;;21.50;44.01;102346.19;4982716;28;19930;-82
2022/04/15 00:50:07;;;;;;;;;;;;;;;21.50;43.45;102352.50;4974264;28;19922;-82
2022/04/15 00:52:34;;;;;;;;;;;;;;;21.47;43.65;102347.56;4971166;28;20006;-83
2022/04/15 00:55:02;;;;;;;;;;;;;;;21.46;43.75;102342.31;4991330;28;19918;-83
2022/04/15 00:57:29;;;;;;;;;;;;;;;21.45;43.82;102343.44;4972620;28;20025;-83
2022/04/15 00:59:57;;;;;;;;;;;;;;;21.44;43.69;102350.84;4975944;28;20012;-81
2022/04/15 01:02:24;;;;;;;;;;;;;;;21.43;43.66;102351.94;4969327;28;19967;-82
2022/04/15 01:04:51;;;;;;;;;;;;;;;21.43;44.00;102353.88;4974941;28;20370;-82
2022/04/15 01:07:19;;;;;;;;;;;;;;;21.41;43.80;102351.41;4972530;28;19918;-82
2022/04/15 01:09:44;;;;;;;;;;;;;;;21.39;43.90;102354.44;4975463;28;20255;-89
2022/04/15 01:12:10;;;;;;;;;;;;;;;21.39;43.69;102350.84;4986818;28;19929;-82
2022/04/15 01:14:39;;;;;;;;;;;;;;;21.38;43.57;102352.78;4956666;28;19922;-82
2022/04/15 01:17:04;;;;;;;;;;;;;;;21.38;43.90;102349.19;4965078;28;19932;-82
2022/04/15 01:19:30;;;;;;;;;;;;;;;21.37;43.98;102353.03;4990522;28;19922;-84
2022/04/15 01:21:56;;;;;;;;;;;;;;;21.36;43.98;102354.94;4974005;28;19968;-82
2022/04/15 01:24:21;;;;;;;;;;;;;;;21.35;43.86;102355.22;4971163;28;20402;-82
2022/04/15 01:26:46;;;;;;;;;;;;;;;21.34;43.90;102350.81;4963520;28;19961;-83
2022/04/15 01:29:11;;;;;;;;;;;;;;;21.33;43.78;102358.25;4973231;28;19934;-83
2022/04/15 01:31:36;;;;;;;;;;;;;;;21.33;43.75;102355.50;4967653;28;19922;-83
2022/04/15 01:34:02;;;;;;;;;;;;;;;21.32;43.80;102358.53;4989066;28;20022;-83
2022/04/15 01:36:27;;;;;;;;;;;;;;;21.31;43.66;102362.38;4991002;28;19961;-85
2022/04/15 01:38:56;;;;;;;;;;;;;;;21.30;43.48;102364.31;4978712;28;20295;-83
2022/04/15 01:41:22;;;;;;;;;;;;;;;21.30;43.80;102368.97;4989610;28;19933;-83
2022/04/15 01:43:47;;;;;;;;;;;;;;;21.28;43.39;102369.25;4970800;28;19923;-89
2022/04/15 01:46:13;;;;;;;;;;;;;;;21.28;43.80;102371.19;4955278;28;20387;-83
2022/04/15 01:48:38;;;;;;;;;;;;;;;21.26;43.49;102376.94;4964244;28;20319;-84
2022/04/15 01:51:03;;;;;;;;;;;;;;;21.24;43.80;102373.63;4962421;28;20342;-83
2022/04/15 01:53:28;;;;;;;;;;;;;;;21.24;43.41;102379.13;4954818;29;19945;-83
2022/04/15 01:55:54;;;;;;;;;;;;;;;21.23;43.80;102380.25;4966173;28;19926;-82
2022/04/15 01:58:19;;;;;;;;;;;;;;;21.21;43.69;102376.94;4975509;28;19922;-82
2022/04/15 02:00:44;;;;;;;;;;;;;;;21.20;43.58;102383.53;4955294;28;19929;-83
2022/04/15 02:03:09;;;;;;;;;;;;;;;21.20;43.71;102380.78;4968768;28;19929;-82
2022/04/15 02:05:35;;;;;;;;;;;;;;;21.20;43.73;102382.72;4990229;28;20367;-82
2022/04/15 02:08:00;;;;;;;;;;;;;;;21.18;43.75;102383.00;4974247;28;19925;-82
2022/04/15 02:10:25;;;;;;;;;;;;;;;21.16;43.33;102382.44;4967632;28;19931;-81
2022/04/15 02:12:50;;;;;;;;;;;;;;;21.15;43.33;102386.28;4990482;28;20016;-81
2022/04/15 02:15:16;;;;;;;;;;;;;;;21.14;43.39;102385.47;4975850;28;19922;-80
2022/04/15 02:17:41;;;;;;;;;;;;;;;21.13;43.24;102385.75;4988713;28;20397;-81
2022/04/15 02:20:07;;;;;;;;;;;;;;;21.13;43.31;102389.31;4970118;28;19922;-81
2022/04/15 02:22:32;;;;;;;;;;;;;;;21.12;43.07;102392.34;4957305;28;19965;-81
2022/04/15 02:24:57;;;;;;;;;;;;;;;21.11;43.44;102394.25;4971511;28;19993;-81
2022/04/15 02:27:22;;;;;;;;;;;;;;;21.11;43.59;102394.25;4970172;28;19926;-82
2022/04/15 02:29:48;;;;;;;;;;;;;;;21.11;43.51;102396.16;4954480;28;19972;-80
2022/04/15 02:32:13;;;;;;;;;;;;;;;21.10;43.21;102400.84;4962937;28;19926;-81
2022/04/15 02:34:38;;;;;;;;;;;;;;;21.09;43.30;102399.22;4987692;28;20271;-81
2022/04/15 02:37:04;;;;;;;;;;;;;;;21.09;43.12;102401.09;4974239;28;20048;-81
2022/04/15 02:39:29;;;;;;;;;;;;;;;21.08;43.28;102400.28;4974711;28;19918;-80
2022/04/15 02:41:56;;;;;;;;;;;;;;;21.07;43.31;102401.41;4974358;28;19922;-81
2022/04/15 02:44:21;;;;;;;;;;;;;;;21.07;43.22;102397.84;4985457;28;19927;-82
2022/04/15 02:46:47;;;;;;;;;;;;;;;21.06;43.38;102401.66;4986374;28;19923;-81
2022/04/15 02:49:12;;;;;;;;;;;;;;;21.05;43.53;102411.84;4966467;28;19937;-81
2022/04/15 02:51:37;;;;;;;;;;;;;;;21.04;43.17;102407.44;4974434;28;19929;-85
2022/04/15 02:54:03;;;;;;;;;;;;;;;21.03;43.37;102403.03;4962441;28;19930;-80
2022/04/15 02:56:28;;;;;;;;;;;;;;;21.03;43.32;102405.78;4973993;28;19922;-81
2022/04/15 02:58:53;;;;;;;;;;;;;;;21.03;43.33;102397.53;4973243;28;19969;-87
2022/04/15 03:01:18;;;;;;;;;;;;;;;21.02;43.51;102398.66;4976151;28;19926;-80
2022/04/15 03:03:44;;;;;;;;;;;;;;;21.00;43.21;102398.09;4973000;28;20374;-81
2022/04/15 03:06:09;;;;;;;;;;;;;;;21.00;43.37;102402.78;4973289;28;19922;-80
2022/04/15 03:08:34;;;;;;;;;;;;;;;20.99;43.47;102396.47;4986001;28;19969;-80
2022/04/15 03:11:00;;;;;;;;;;;;;;;20.98;43.42;102400.28;4970946;28;20478;-80
2022/04/15 03:13:26;;;;;;;;;;;;;;;20.98;43.25;102403.03;4985126;28;19922;-82
2022/04/15 03:15:51;;;;;;;;;;;;;;;20.97;43.38;102406.88;4986102;28;20029;-80
2022/04/15 03:18:16;;;;;;;;;;;;;;;20.98;43.09;102404.97;4971886;28;19926;-81
2022/04/15 03:20:42;;;;;;;;;;;;;;;20.98;43.06;102404.97;4973364;28;19937;-82
2022/04/15 03:23:08;;;;;;;;;;;;;;;20.96;43.09;102403.31;4973694;28;20374;-83
2022/04/15 03:25:33;;;;;;;;;;;;;;;20.96;43.30;102407.97;4972998;28;19972;-83
2022/04/15 03:28:00;;;;;;;;;;;;;;;20.95;43.40;102409.91;4973859;28;20399;-81
2022/04/15 03:30:26;;;;;;;;;;;;;;;20.94;43.36;102411.00;4956880;28;19926;-81
2022/04/15 03:32:52;;;;;;;;;;;;;;;20.95;43.41;102409.06;4988564;28;19941;-84
2022/04/15 03:35:20;;;;;;;;;;;;;;;20.93;43.33;102409.34;4973042;28;20008;-81
2022/04/15 03:37:45;;;;;;;;;;;;;;;20.93;43.36;102416.75;4973894;28;20402;-82
2022/04/15 03:40:10;;;;;;;;;;;;;;;20.92;43.36;102417.88;4971845;28;19930;-81
2022/04/15 03:43:05;;;;;;;;;;;;;;;20.91;43.29;102416.19;4952524;29;19973;-82
2022/04/15 03:45:30;;;;;;;;;;;;;;;20.90;43.32;102420.88;4951886;28;19929;-82
2022/04/15 03:47:56;;;;;;;;;;;;;;;20.90;43.38;102420.06;4976938;28;20256;-81
2022/04/15 03:50:21;;;;;;;;;;;;;;;20.90;43.20;102417.31;4961030;28;19927;-81
2022/04/15 03:52:47;;;;;;;;;;;;;;;20.89;43.44;102423.88;4971701;28;19940;-81
2022/04/15 03:55:13;;;;;;;;;;;;;;;20.88;43.41;102431.31;4956257;28;19957;-81
2022/04/15 03:57:39;;;;;;;;;;;;;;;20.88;43.14;102427.72;4960984;28;20009;-86
2022/04/15 04:00:06;;;;;;;;;;;;;;;20.87;43.37;102434.34;4973078;28;20025;-81
2022/04/15 04:02:31;;;;;;;;;;;;;;;20.87;43.38;102431.59;4973493;28;19973;-82
2022/04/15 04:04:56;;;;;;;;;;;;;;;20.85;43.04;102434.59;4972839;28;19926;-80
2022/04/15 04:07:21;;;;;;;;;;;;;;;20.86;43.44;102432.66;4937956;29;19922;-81
2022/04/15 04:09:47;;;;;;;;;;;;;;;20.85;43.36;102440.09;4979912;28;20367;-82
2022/04/15 04:12:12;;;;;;;;;;;;;;;20.86;43.36;102438.16;4959167;28;20367;-81
2022/04/15 04:14:37;;;;;;;;;;;;;;;20.84;43.50;102443.09;4967580;28;19922;-81
2022/04/15 04:17:02;;;;;;;;;;;;;;;20.84;43.47;102443.09;4987275;28;19930;-81
2022/04/15 04:19:28;;;;;;;;;;;;;;;20.83;43.18;102447.75;4972851;28;19922;-81
2022/04/15 04:21:53;;;;;;;;;;;;;;;20.83;43.10;102446.94;4972460;28;19937;-81
2022/04/15 04:24:18;;;;;;;;;;;;;;;20.82;43.49;102448.88;4955904;28;19981;-82
2022/04/15 04:26:43;;;;;;;;;;;;;;;20.81;43.09;102444.47;4968283;28;20021;-81
2022/04/15 04:29:09;;;;;;;;;;;;;;;20.81;43.22;102447.22;4973044;28;20298;-81
2022/04/15 04:31:34;;;;;;;;;;;;;;;20.81;43.21;102457.38;4968463;28;19961;-88
2022/04/15 04:33:59;;;;;;;;;;;;;;;20.80;43.37;102456.56;4956902;28;19926;-81
2022/04/15 04:36:24;;;;;;;;;;;;;;;20.80;43.47;102451.06;4964953;28;20271;-82
2022/04/15 04:38:50;;;;;;;;;;;;;;;20.80;43.29;102456.56;4973015;28;20012;-82
2022/04/15 04:41:15;;;;;;;;;;;;;;;20.80;43.29;102459.31;4985689;28;19930;-82
2022/04/15 04:43:40;;;;;;;;;;;;;;;20.78;43.34;102461.47;4959672;28;19934;-81
2022/04/15 04:46:06;;;;;;;;;;;;;;;20.78;43.39;102463.41;4970528;28;19977;-81
2022/04/15 04:48:32;;;;;;;;;;;;;;;20.78;43.06;102461.47;4988143;28;20337;-81
2022/04/15 04:50:57;;;;;;;;;;;;;;;20.78;43.18;102463.41;4969597;28;19922;-81
2022/04/15 04:53:23;;;;;;;;;;;;;;;20.77;43.19;102465.34;4959146;28;20354;-82
2022/04/15 04:55:48;;;;;;;;;;;;;;;20.77;43.40;102462.59;4970623;28;19976;-81
2022/04/15 04:58:13;;;;;;;;;;;;;;;20.76;43.20;102474.66;4975118;28;20012;-82
2022/04/15 05:00:38;;;;;;;;;;;;;;;20.75;43.14;102482.06;4965724;28;19969;-81
2022/04/15 05:03:04;;;;;;;;;;;;;;;20.75;43.46;102478.50;4974372;28;19930;-88
2022/04/15 05:05:29;;;;;;;;;;;;;;;20.75;43.21;102478.50;4966205;28;19974;-84
2022/04/15 05:07:54;;;;;;;;;;;;;;;20.74;43.52;102480.44;4972870;28;19989;-82
2022/04/15 05:10:22;;;;;;;;;;;;;;;20.73;43.43;102477.94;4974656;28;19957;-82
2022/04/15 05:12:47;;;;;;;;;;;;;;;20.73;43.31;102487.00;4975999;28;20362;-82
2022/04/15 05:15:12;;;;;;;;;;;;;;;20.73;43.53;102492.50;4959062;28;19930;-82
2022/04/15 05:17:38;;;;;;;;;;;;;;;20.73;43.31;102500.72;4969456;28;20327;-82
2022/04/15 05:20:04;;;;;;;;;;;;;;;20.72;43.07;102504.59;4971961;28;19926;-82
2022/04/15 05:22:29;;;;;;;;;;;;;;;20.71;43.03;102505.69;4966593;28;19925;-81
2022/04/15 05:24:54;;;;;;;;;;;;;;;20.71;43.20;102502.09;4974617;28;19922;-81
2022/04/15 05:27:20;;;;;;;;;;;;;;;20.70;43.28;102509.50;4972174;28;19922;-81
2022/04/15 05:29:45;;;;;;;;;;;;;;;20.71;43.31;102510.34;4971378;28;20462;-81
2022/04/15 05:32:10;;;;;;;;;;;;;;;20.71;43.30;102515.81;4969496;28;20290;-82
2022/04/15 05:34:35;;;;;;;;;;;;;;;20.69;43.20;102516.13;4973370;28;19969;-82
2022/04/15 05:37:01;;;;;;;;;;;;;;;20.69;43.42;102523.53;4974396;28;19958;-82
2022/04/15 05:39:26;;;;;;;;;;;;;;;20.68;43.19;102530.09;4975601;28;20322;-82
2022/04/15 05:41:51;;;;;;;;;;;;;;;20.69;43.10;102538.09;4971020;28;20017;-82
2022/04/15 05:44:17;;;;;;;;;;;;;;;20.67;43.43;102540.25;4966773;28;19922;-83
2022/04/15 05:46:45;;;;;;;;;;;;;;;20.67;43.07;102540.25;4980884;28;19933;-82
2022/04/15 05:49:14;;;;;;;;;;;;;;;20.66;43.29;102543.25;4970659;28;19926;-84
2022/04/15 05:51:41;;;;;;;;;;;;;;;20.66;43.25;102546.84;4974280;28;19926;-82
2022/04/15 05:54:07;;;;;;;;;;;;;;;20.66;43.16;102546.84;4974830;28;19969;-82
2022/04/15 05:56:32;;;;;;;;;;;;;;;20.66;43.31;102554.25;4980650;28;19965;-82
2022/04/15 05:58:57;;;;;;;;;;;;;;;20.65;43.05;102561.66;4954934;28;19927;-82
2022/04/15 06:01:23;;;;;;;;;;;;;;;20.65;43.31;102558.09;4965649;28;20306;-81
2022/04/15 06:03:48;;;;;;;;;;;;;;;20.66;43.19;102562.47;4973946;28;19922;-81
2022/04/15 06:06:13;;;;;;;;;;;;;;;20.64;43.26;102560.03;4968599;28;19989;-81
2022/04/15 06:08:38;;;;;;;;;;;;;;;20.65;43.19;102561.66;4973841;28;19965;-82
2022/04/15 06:11:04;;;;;;;;;;;;;;;20.64;43.08;102565.50;4961271;28;19922;-83
2022/04/15 06:13:29;;;;;;;;;;;;;;;20.64;43.38;102571.00;4989961;28;19922;-81
2022/04/15 06:15:58;;;;;;;;;;;;;;;20.64;43.11;102564.69;4973439;28;19933;-81
2022/04/15 06:18:24;;;;;;;;;;;;;;;20.64;43.12;102565.50;4972916;28;19933;-81
2022/04/15 06:20:50;;;;;;;;;;;;;;;20.64;43.15;102576.50;4973846;28;19997;-82
2022/04/15 06:23:16;;;;;;;;;;;;;;;20.64;43.38;102575.69;4969247;28;20024;-82
2022/04/15 06:25:41;;;;;;;;;;;;;;;20.63;43.24;102571.25;4961107;28;20461;-82
2022/04/15 06:28:07;;;;;;;;;;;;;;;20.64;43.00;102581.16;4974028;28;19922;-81
2022/04/15 06:30:32;;;;;;;;;;;;;;;20.64;43.09;102586.66;4973908;28;19937;-82
2022/04/15 06:32:57;;;;;;;;;;;;;;;20.63;43.04;102582.25;4974553;28;19941;-82
2022/04/15 06:35:22;;;;;;;;;;;;;;;20.63;43.33;102590.47;4962624;28;20005;-84
2022/04/15 06:37:48;;;;;;;;;;;;;;;20.63;43.00;102593.22;4984446;28;19927;-82
2022/04/15 06:40:13;;;;;;;;;;;;;;;20.62;43.18;102595.16;4967083;28;19941;-85
2022/04/15 06:42:39;;;;;;;;;;;;;;;20.62;43.08;102600.66;4989989;28;19922;-83
2022/04/15 06:45:04;;;;;;;;;;;;;;;20.63;43.28;102604.22;4989069;28;19925;-82
2022/04/15 06:47:29;;;;;;;;;;;;;;;20.62;43.03;102606.13;4970240;28;19981;-81
2022/04/15 06:49:55;;;;;;;;;;;;;;;20.61;43.09;102612.69;4967556;28;19982;-84
2022/04/15 06:52:20;;;;;;;;;;;;;;;20.62;43.03;102613.56;4974357;28;19958;-82
2022/04/15 06:54:46;;;;;;;;;;;;;;;20.62;43.09;102619.03;4972982;28;19918;-83
2022/04/15 06:57:11;;;;;;;;;;;;;;;20.61;43.39;102612.69;4986569;28;20013;-82
2022/04/15 06:59:37;;;;;;;;;;;;;;;20.61;43.12;102612.69;4965549;28;19922;-82
2022/04/15 07:02:02;;;;;;;;;;;;;;;20.61;43.06;102609.13;4966161;28;20401;-83
2022/04/15 07:04:28;;;;;;;;;;;;;;;20.61;43.22;102612.69;4966770;28;20393;-81
2022/04/15 07:06:53;;;;;;;;;;;;;;;20.61;43.23;102620.13;4973948;28;20430;-81
2022/04/15 07:09:19;;;;;;;;;;;;;;;20.61;43.38;102611.88;4967898;28;19927;-82
2022/04/15 07:11:44;;;;;;;;;;;;;;;20.60;43.08;102619.28;4963570;28;20338;-82
2022/04/15 07:14:09;;;;;;;;;;;;;;;20.60;43.20;102626.72;4966969;28;20378;-82
2022/04/15 07:16:34;;;;;;;;;;;;;;;20.60;43.02;102627.53;4973864;28;20026;-86
2022/04/15 07:19:04;;;;;;;;;;;;;;;20.60;43.58;102630.28;4970020;28;19977;-83
2022/04/15 07:21:29;;;;;;;;;;;;;;;20.60;43.34;102633.03;4969059;28;19930;-81
2022/04/15 07:23:55;;;;;;;;;;;;;;;20.60;43.09;102630.28;4966013;28;19944;-83
2022/04/15 07:26:20;;;;;;;;;;;;;;;20.60;43.14;102630.28;4968971;28;19933;-81
2022/04/15 07:28:45;;;;;;;;;;;;;;;20.61;43.27;102633.84;4959084;28;19932;-80
2022/04/15 07:31:11;;;;;;;;;;;;;;;20.61;42.94;102637.41;4973379;28;19926;-84
2022/04/15 07:33:36;;;;;;;;;;;;;;;20.61;43.31;102637.41;4977177;28;19981;-88
2022/04/15 07:36:03;;;;;;;;;;;;;;;20.61;43.52;102640.16;4972569;28;19922;-82
2022/04/15 07:38:28;;;;;;;;;;;;;;;20.62;43.41;102641.00;4970787;28;20383;-82
2022/04/15 07:40:54;;;;;;;;;;;;;;;20.62;43.55;102641.81;4965365;28;19923;-84
2022/04/15 07:43:19;;;;;;;;;;;;;;;20.62;43.35;102647.31;4964747;28;20576;-84
2022/04/15 07:45:44;;;;;;;;;;;;;;;20.63;43.54;102642.66;4954977;28;19925;-86
2022/04/15 07:48:10;;;;;;;;;;;;;;;20.63;43.51;102646.22;4970860;28;19922;-84
2022/04/15 07:50:36;;;;;;;;;;;;;;;20.63;43.52;102640.72;4977914;28;20061;-83
2022/04/15 07:53:01;;;;;;;;;;;;;;;20.64;43.62;102656.13;4973686;28;19977;-85
2022/04/15 07:55:27;;;;;;;;;;;;;;;20.64;43.58;102636.91;4952881;29;20020;-83
2022/04/15 07:57:53;;;;;;;;;;;;;;;20.64;43.64;102639.66;4968425;28;20382;-80
2022/04/15 08:00:19;;;;;;;;;;;;;;;20.65;43.84;102643.22;4967885;28;20371;-88
2022/04/15 08:02:44;;;;;;;;;;;;;;;20.67;43.55;102643.78;4972704;28;20420;-87
2022/04/15 08:05:09;;;;;;;;;;;;;;;20.68;43.72;102645.44;4969316;28;20343;-88
2022/04/15 08:07:34;;;;;;;;;;;;;;;20.70;43.87;102652.31;4964277;28;19926;-82
2022/04/15 08:10:00;;;;;;;;;;;;;;;20.70;44.12;102649.56;4988292;28;19922;-81
2022/04/15 08:12:25;;;;;;;;;;;;;;;20.72;43.79;102655.63;4980548;28;19986;-82
2022/04/15 08:14:52;;;;;;;;;;;;;;;20.73;43.93;102651.78;4960031;28;20434;-90
2022/04/15 08:17:18;;;;;;;;;;;;;;;20.74;44.16;102653.44;4976978;28;20016;-81
2022/04/15 08:19:43;;;;;;;;;;;;;;;20.74;44.08;102652.63;4975718;28;20380;-83
2022/04/15 08:22:09;;;;;;;;;;;;;;;20.75;44.23;102659.75;4985270;28;19922;-81
2022/04/15 08:24:38;;;;;;;;;;;;;;;20.74;44.30;102655.38;4974763;28;19981;-81
2022/04/15 08:27:03;;;;;;;;;;;;;;;20.74;44.52;102655.38;4970725;28;19922;-81
2022/04/15 08:29:29;;;;;;;;;;;;;;;20.73;44.58;102657.25;4971147;28;19926;-80
2022/04/15 08:31:54;;;;;;;;;;;;;;;20.72;44.42;102658.38;4962153;28;19986;-80
2022/04/15 08:34:20;;;;;;;;;;;;;;;20.72;44.38;102665.78;4980212;28;19925;-80
2022/04/15 08:36:45;;;;;;;;;;;;;;;20.72;44.53;102663.88;4965493;28;20009;-81
2022/04/15 08:39:10;;;;;;;;;;;;;;;20.72;44.53;102666.59;4968137;28;19933;-81
2022/04/15 08:41:40;;;;;;;;;;;;;;;20.72;44.51;102668.53;4968504;28;19930;-81
2022/04/15 08:44:06;;;;;;;;;;;;;;;20.72;44.49;102672.09;4975140;28;20330;-82
2022/04/15 08:46:31;;;;;;;;;;;;;;;20.72;44.40;102677.59;4952421;28;20394;-81
2022/04/15 08:48:57;;;;;;;;;;;;;;;20.71;44.57;102675.94;4962098;28;19922;-81
2022/04/15 08:51:22;;;;;;;;;;;;;;;20.71;44.21;102675.94;4970232;28;19952;-82
2022/04/15 08:53:52;;;;;;;;;;;;;;;20.71;44.26;102675.09;4987060;28;20382;-81
2022/04/15 08:56:19;;;;;;;;;;;;;;;20.71;44.21;102683.34;4975096;28;19973;-81
2022/04/15 08:58:45;;;;;;;;;;;;;;;20.71;44.17;102680.59;4971698;28;20390;-81
2022/04/15 09:01:10;;;;;;;;;;;;;;;20.70;44.25;102676.19;4974056;28;19924;-83
2022/04/15 09:03:35;;;;;;;;;;;;;;;20.70;44.32;102678.94;4954720;28;20403;-81
2022/04/15 09:06:01;;;;;;;;;;;;;;;20.69;44.25;102680.88;4958120;28;20850;-80
2022/04/15 09:08:26;;;;;;;;;;;;;;;20.70;44.13;102681.69;4969910;28;20376;-84
2022/04/15 09:10:56;;;;;;;;;;;;;;;20.68;44.12;102681.94;4966374;28;19929;-80
2022/04/15 09:13:22;;;;;;;;;;;;;;;20.68;44.50;102675.63;4971799;28;20371;-80
2022/04/15 09:15:47;;;;;;;;;;;;;;;20.68;44.48;102681.13;4970740;28;19938;-81
2022/04/15 09:18:32;;;;;;;;;;;;;;;20.67;44.14;102680.31;4967983;28;20278;-80
2022/04/15 09:21:17;;;;;;;;;;;;;;;20.69;44.32;102686.38;4967402;28;19918;-80
2022/04/15 09:23:49;;;;;;;;;;;;;;;20.69;44.00;102689.13;4971126;28;19918;-80
2022/04/15 09:26:15;;;;;;;;;;;;;;;20.68;44.15;102687.44;4988915;28;19926;-84
2022/04/15 09:28:41;;;;;;;;;;;;;;;20.67;44.22;102688.53;4956028;28;19926;-81
2022/04/15 09:31:13;;;;;;;;;;;;;;;20.67;44.13;102688.53;4986509;28;19927;-80
2022/04/15 09:33:38;;;;;;;;;;;;;;;20.68;44.13;102700.34;4974135;28;19945;-80
2022/04/15 09:36:04;;;;;;;;;;;;;;;20.68;43.92;102698.41;4967232;28;20375;-79
2022/04/15 09:38:49;;;;;;;;;;;;;;;20.68;43.98;102697.59;4972940;28;19930;-82
2022/04/15 09:41:22;;;;;;;;;;;;;;;20.69;43.81;102699.28;4972616;28;19941;-81
2022/04/15 09:43:54;;;;;;;;;;;;;;;20.69;44.05;102704.78;4969217;28;19918;-81
2022/04/15 09:46:19;;;;;;;;;;;;;;;20.70;43.99;102706.41;4980385;28;19926;-80
2022/04/15 09:49:03;;;;;;;;;;;;;;;20.71;43.87;102705.31;4972258;28;19928;-81
2022/04/15 09:51:34;;;;;;;;;;;;;;;20.71;43.83;102705.31;4969583;28;19999;-81
2022/04/15 09:54:04;;;;;;;;;;;;;;;20.71;44.00;102706.16;4982789;28;20364;-80
2022/04/15 09:56:34;;;;;;;;;;;;;;;20.72;43.93;102705.06;4972674;28;19929;-81
2022/04/15 09:59:03;;;;;;;;;;;;;;;20.73;43.80;102706.69;4973813;28;19918;-80
2022/04/15 10:01:30;;;;;;;;;;;;;;;20.74;43.65;102708.38;4973893;28;19922;-80
2022/04/15 10:03:55;;;;;;;;;;;;;;;20.75;43.77;102709.19;4965665;28;19922;-78
2022/04/15 10:06:22;;;;;;;;;;;;;;;20.76;43.89;102705.34;4968556;28;20421;-79
2022/04/15 10:08:47;;;;;;;;;;;;;;;20.77;43.57;102711.69;4968691;28;19925;-79
2022/04/15 10:11:14;;;;;;;;;;;;;;;20.78;43.50;102710.59;4987949;28;19922;-79
2022/04/15 10:13:39;;;;;;;;;;;;;;;20.78;43.56;102708.66;4986664;28;19918;-80
2022/04/15 10:16:05;;;;;;;;;;;;;;;20.79;43.44;102703.97;4972786;28;20378;-80
2022/04/15 10:18:31;;;;;;;;;;;;;;;20.81;43.54;102704.56;4988267;28;19922;-84
2022/04/15 10:20:58;;;;;;;;;;;;;;;20.81;43.44;102708.13;4987872;28;19925;-79
2022/04/15 10:23:24;;;;;;;;;;;;;;;20.81;43.62;102704.56;4968520;28;19926;-81
2022/04/15 10:25:50;;;;;;;;;;;;;;;20.82;43.36;102698.81;4954938;28;19919;-79
2022/04/15 10:28:20;;;;;;;;;;;;;;;20.83;43.55;102694.97;4982485;28;19926;-79
2022/04/15 10:30:52;;;;;;;;;;;;;;;20.83;43.59;102703.19;4982667;28;20314;-79
2022/04/15 10:33:28;;;;;;;;;;;;;;;20.85;43.38;102694.72;4973162;28;19953;-80
2022/04/15 10:35:58;;;;;;;;;;;;;;;20.86;43.59;102693.59;4968220;28;19945;-81
2022/04/15 10:38:23;;;;;;;;;;;;;;;20.87;43.40;102693.34;4972443;28;19922;-80
2022/04/15 10:40:49;;;;;;;;;;;;;;;20.86;43.21;102697.16;4969408;28;20386;-79
2022/04/15 10:43:22;;;;;;;;;;;;;;;20.88;43.34;102691.41;4964846;28;19977;-79
2022/04/15 10:45:49;;;;;;;;;;;;;;;20.87;43.37;102676.03;4958362;28;19923;-79
2022/04/15 10:48:27;;;;;;;;;;;;;;;20.89;43.44;102679.34;4961829;28;20407;-79
2022/04/15 10:50:53;;;;;;;;;;;;;;;20.88;43.18;102680.44;4970550;28;19922;-79
2022/04/15 10:53:23;;;;;;;;;;;;;;;20.88;43.37;102686.75;4970296;28;20393;-79
2022/04/15 10:55:49;;;;;;;;;;;;;;;20.89;43.46;102673.84;4970028;28;20017;-79
2022/04/15 10:58:15;;;;;;;;;;;;;;;20.90;43.19;102672.75;4972098;28;20020;-79
2022/04/15 11:03:26;;;;;;;;;;;;;;;20.89;43.18;102674.69;4962958;28;19993;-83
2022/04/15 11:05:51;;;;;;;;;;;;;;;20.89;43.44;102676.59;4979093;28;19918;-76
2022/04/15 11:08:20;;;;;;;;;;;;;;;20.90;43.05;102679.06;4986888;28;19929;-78
2022/04/15 11:11:07;;;;;;;;;;;;;;;20.91;43.36;102674.41;4964459;28;20358;-77
2022/04/15 11:13:52;;;;;;;;;;;;;;;20.92;43.28;102676.91;4968001;28;19976;-77
2022/04/15 11:16:18;;;;;;;;;;;;;;;20.92;43.38;102681.56;4968423;28;19941;-77
2022/04/15 11:18:53;;;;;;;;;;;;;;;20.93;43.41;102677.72;4968666;28;20395;-77
2022/04/15 11:21:32;;;;;;;;;;;;;;;20.93;43.08;102678.53;4972389;28;19918;-81
2022/04/15 11:23:57;;;;;;;;;;;;;;;20.94;43.22;102673.88;4969010;28;19961;-80
2022/04/15 11:26:24;;;;;;;;;;;;;;;20.93;43.20;102667.56;4982396;28;20405;-78
2022/04/15 11:28:50;;;;;;;;;;;;;;;20.95;43.40;102667.31;4961231;28;20401;-78
2022/04/15 11:31:19;;;;;;;;;;;;;;;20.96;43.11;102671.69;4970600;28;19922;-81
2022/04/15 11:33:44;;;;;;;;;;;;;;;20.96;43.36;102667.03;4985909;28;19918;-81
2022/04/15 11:36:09;;;;;;;;;;;;;;;20.96;43.09;102675.28;4965283;28;19932;-78
2022/04/15 11:38:35;;;;;;;;;;;;;;;20.98;43.28;102663.19;4962225;28;20013;-78
2022/04/15 11:41:00;;;;;;;;;;;;;;;20.99;43.14;102676.69;4970145;28;20354;-78
2022/04/15 11:43:25;;;;;;;;;;;;;;;21.00;43.43;102677.50;4964972;28;19949;-78
2022/04/15 11:45:51;;;;;;;;;;;;;;;21.00;43.09;102670.06;4969904;28;20008;-78
2022/04/15 11:48:23;;;;;;;;;;;;;;;21.00;43.45;102669.25;4971187;28;19926;-78
2022/04/15 11:50:51;;;;;;;;;;;;;;;21.00;43.14;102661.84;4972649;28;20282;-77
2022/04/15 11:53:18;;;;;;;;;;;;;;;21.00;43.22;102667.31;4973935;28;20298;-80
2022/04/15 11:55:53;;;;;;;;;;;;;;;21.01;43.39;102662.66;4973069;28;19922;-82
2022/04/15 11:58:18;;;;;;;;;;;;;;;21.02;43.03;102669.81;4972702;28;19970;-80
2022/04/15 12:00:49;;;;;;;;;;;;;;;21.01;43.11;102657.97;4963232;28;19949;-84
2022/04/15 12:03:15;;;;;;;;;;;;;;;21.03;43.54;102663.22;4988554;28;19926;-78
2022/04/15 12:05:40;;;;;;;;;;;;;;;21.03;43.20;102672.28;4991134;28;19937;-79
2022/04/15 12:08:06;;;;;;;;;;;;;;;21.04;43.18;102673.09;4972994;28;20377;-78
2022/04/15 12:10:31;;;;;;;;;;;;;;;21.04;43.41;102660.22;4973995;28;19934;-78
2022/04/15 12:12:56;;;;;;;;;;;;;;;21.05;43.16;102664.59;4973497;28;19970;-78
2022/04/15 12:15:25;;;;;;;;;;;;;;;21.07;43.49;102661.59;4975280;28;20405;-81
2022/04/15 12:17:50;;;;;;;;;;;;;;;21.06;43.54;102658.00;4974944;28;19926;-79
2022/04/15 12:20:16;;;;;;;;;;;;;;;21.07;43.15;102661.59;4974810;28;19926;-82
2022/04/15 12:22:42;;;;;;;;;;;;;;;21.07;43.05;102667.91;4968651;28;19962;-81
2022/04/15 12:25:17;;;;;;;;;;;;;;;21.08;43.47;102658.56;4969346;28;19977;-81
2022/04/15 12:27:44;;;;;;;;;;;;;;;21.09;43.35;102671.22;4967591;28;19922;-82
2022/04/15 12:30:10;;;;;;;;;;;;;;;21.10;43.72;102663.81;4972924;28;19926;-76
2022/04/15 12:32:36;;;;;;;;;;;;;;;21.11;43.45;102662.69;4990415;28;19926;-79
2022/04/15 12:35:01;;;;;;;;;;;;;;;21.12;43.58;102659.69;4974012;28;20345;-81